Time;durP1;ratioP1;P1;durP2;ratioP2;P2;SDS_P1;SDS_P2;PMS_P1;PMS_P2;Temp;Humidity;BMP_temperature;BMP_pressure;BME280_temperature;BME280_humidity;BME280_pressure;Samples;Min_cycle;Max_cycle;Signal;HPM_P1;HPM_P2
2023/01/01 00:01:41;;;;;;;15.55;9.10;;;;;;;1.94;100.00;101304.52;1704019;83;21465;-61
2023/01/01 00:04:11;;;;;;;13.32;8.58;;;;;;;1.96;100.00;101312.13;1709327;83;21126;-61
2023/01/01 00:06:38;;;;;;;15.32;10.20;;;;;;;1.97;100.00;101300.94;1719840;83;21559;-60
2023/01/01 00:11:51;;;;;;;14.70;9.45;;;;;;;1.98;100.00;101300.00;1718541;83;20939;-65
2023/01/01 00:14:19;;;;;;;14.28;8.85;;;;;;;1.98;100.00;101296.61;1719206;82;21073;-60
2023/01/01 00:16:46;;;;;;;13.62;8.88;;;;;;;2.00;100.00;101294.75;1719258;82;21128;-60
2023/01/01 00:19:14;;;;;;;15.65;9.63;;;;;;;2.02;100.00;101287.30;1719071;82;20951;-60
2023/01/01 00:21:41;;;;;;;13.03;8.80;;;;;;;2.03;100.00;101285.08;1719094;81;20932;-64
2023/01/01 00:24:08;;;;;;;14.63;9.05;;;;;;;2.05;100.00;101284.53;1718133;83;20997;-62
2023/01/01 00:26:36;;;;;;;14.13;9.25;;;;;;;2.05;100.00;101285.00;1719264;82;21113;-61
2023/01/01 00:29:04;;;;;;;13.83;8.75;;;;;;;2.06;100.00;101283.59;1719280;83;21857;-60
2023/01/01 00:31:31;;;;;;;12.82;8.03;;;;;;;2.09;100.00;101281.30;1719769;83;21018;-60
2023/01/01 00:33:59;;;;;;;12.65;8.30;;;;;;;2.11;100.00;101271.23;1718905;83;21037;-65
2023/01/01 00:36:26;;;;;;;11.85;8.53;;;;;;;2.11;100.00;101277.67;1718678;82;21046;-61
2023/01/01 00:38:54;;;;;;;14.07;8.20;;;;;;;2.14;100.00;101279.22;1719798;82;21010;-60
2023/01/01 00:41:21;;;;;;;11.95;8.03;;;;;;;2.17;100.00;101279.84;1719717;82;22356;-60
2023/01/01 00:43:48;;;;;;;14.13;8.70;;;;;;;2.18;100.00;101279.38;1719711;83;21011;-60
2023/01/01 00:46:17;;;;;;;14.13;8.98;;;;;;;2.19;100.00;101280.55;1718865;83;20900;-59
2023/01/01 00:48:44;;;;;;;13.58;8.75;;;;;;;2.23;100.00;101276.48;1719804;81;21137;-61
2023/01/01 00:51:12;;;;;;;11.83;8.48;;;;;;;2.26;100.00;101270.67;1719573;83;21423;-60
2023/01/01 00:53:40;;;;;;;15.00;8.48;;;;;;;2.28;100.00;101268.83;1719561;83;21828;-61
2023/01/01 00:56:08;;;;;;;13.78;8.68;;;;;;;2.29;100.00;101274.33;1718234;83;21027;-65
2023/01/01 00:58:35;;;;;;;11.12;7.40;;;;;;;2.30;100.00;101267.42;1719595;82;21480;-60
2023/01/01 01:01:02;;;;;;;12.80;8.75;;;;;;;2.31;100.00;101267.34;1719754;83;21485;-60
2023/01/01 01:03:31;;;;;;;12.33;8.65;;;;;;;2.31;100.00;101264.77;1719108;83;21075;-60
2023/01/01 01:06:04;;;;;;;13.18;8.73;;;;;;;2.32;100.00;101256.58;1702999;83;22231;-62
2023/01/01 01:08:33;;;;;;;11.70;8.20;;;;;;;2.31;100.00;101244.63;1685512;84;21114;-59
2023/01/01 01:11:12;;;;;;;13.43;8.63;;;;;;;2.32;100.00;101241.96;1703456;83;21227;-59
2023/01/01 01:13:40;;;;;;;14.10;9.03;;;;;;;2.33;100.00;101245.35;1702904;84;21518;-59
2023/01/01 01:16:18;;;;;;;14.23;8.73;;;;;;;2.32;100.00;101252.72;1702216;83;20963;-60
2023/01/01 01:18:45;;;;;;;13.38;8.58;;;;;;;2.32;100.00;101250.15;1703898;83;21237;-60
2023/01/01 01:21:16;;;;;;;16.02;9.45;;;;;;;2.33;100.00;101259.50;1703132;84;21091;-59
2023/01/01 01:23:45;;;;;;;12.30;8.77;;;;;;;2.33;100.00;101265.94;1703587;84;21134;-62
2023/01/01 01:26:15;;;;;;;11.63;8.23;;;;;;;2.35;100.00;101258.92;1703535;84;20956;-59
2023/01/01 01:28:43;;;;;;;10.85;7.62;;;;;;;2.33;100.00;101256.46;1703054;83;20988;-59
2023/01/01 01:31:10;;;;;;;11.90;8.65;;;;;;;2.36;100.00;101261.88;1703140;83;21273;-61
2023/01/01 01:33:38;;;;;;;10.98;7.55;;;;;;;2.36;100.00;101252.40;1702869;84;21012;-61
2023/01/01 01:36:05;;;;;;;11.10;7.55;;;;;;;2.35;100.00;101244.77;1703771;84;21110;-60
2023/01/01 01:38:34;;;;;;;12.53;8.13;;;;;;;2.33;100.00;101239.73;1703360;84;21004;-59
2023/01/01 01:41:02;;;;;;;11.20;8.18;;;;;;;2.31;100.00;101233.89;1703993;84;21544;-59
2023/01/01 01:43:56;;;;;;;9.75;7.15;;;;;;;2.30;100.00;101233.98;1703390;83;21781;-64
2023/01/01 01:46:38;;;;;;;11.18;7.30;;;;;;;2.28;100.00;101228.95;1658977;86;21140;-60
2023/01/01 01:49:13;;;;;;;;;;;;;;;2.27;100.00;101233.72;1702120;84;20998;-64
2023/01/01 01:51:40;;;;;;;11.40;7.83;;;;;;;2.26;100.00;101228.69;1699923;82;20172;-60
2023/01/01 01:54:15;;;;;;;10.08;8.10;;;;;;;2.25;100.00;101221.91;1700271;83;21068;-61
2023/01/01 01:56:51;;;;;;;9.98;7.58;;;;;;;2.25;100.00;101223.20;1678854;84;21428;-64
2023/01/01 01:59:18;;;;;;;10.35;8.05;;;;;;;2.26;100.00;101220.97;1699620;83;21445;-59
2023/01/01 02:01:46;;;;;;;11.43;8.13;;;;;;;2.27;100.00;101220.03;1700116;83;20974;-60
2023/01/01 02:04:13;;;;;;;12.07;7.55;;;;;;;2.27;100.00;101217.46;1700333;82;21070;-64
2023/01/01 02:06:41;;;;;;;12.35;8.15;;;;;;;2.29;100.00;101215.63;1698794;81;20987;-61
2023/01/01 02:09:10;;;;;;;11.73;8.25;;;;;;;2.30;100.00;101211.64;1699950;83;21535;-59
2023/01/01 02:11:37;;;;;;;10.45;7.60;;;;;;;2.30;100.00;101203.92;1699757;83;20958;-59
2023/01/01 02:14:05;;;;;;;12.00;8.93;;;;;;;2.33;100.00;101196.47;1700503;84;21450;-59
2023/01/01 02:16:46;;;;;;;12.55;8.68;;;;;;;2.34;100.00;101191.67;1699502;82;20999;-60
2023/01/01 02:19:43;;;;;;;11.85;7.95;;;;;;;2.36;100.00;101198.84;1700357;84;21555;-59
2023/01/01 02:22:21;;;;;;;12.13;9.08;;;;;;;2.37;100.00;101200.00;1698606;84;21249;-65
2023/01/01 02:25:28;;;;;;;12.43;8.10;;;;;;;2.39;100.00;101207.63;1699865;81;21132;-61
2023/01/01 02:28:31;;;;;;;12.23;8.43;;;;;;;2.39;100.00;101204.59;1699490;84;21017;-62
2023/01/01 02:30:58;;;;;;;12.55;8.25;;;;;;;2.40;100.00;101202.84;1693186;84;20997;-61
2023/01/01 02:33:25;;;;;;;10.90;8.20;;;;;;;2.40;100.00;101191.26;1699793;83;21062;-61
2023/01/01 02:36:03;;;;;;;13.70;8.88;;;;;;;2.39;100.00;101184.48;1699582;81;21159;-61
2023/01/01 02:38:37;;;;;;;13.43;9.53;;;;;;;2.38;100.00;101186.20;1699403;81;20981;-62
2023/01/01 02:41:25;;;;;;;12.35;7.72;;;;;;;2.39;100.00;101183.19;1679521;84;20938;-62
2023/01/01 02:43:52;;;;;;;11.50;7.97;;;;;;;2.40;100.00;101179.68;1699770;83;20994;-64
2023/01/01 02:46:20;;;;;;;10.68;8.45;;;;;;;2.42;100.00;101185.52;1679858;84;21034;-61
2023/01/01 02:48:50;;;;;;;11.45;8.58;;;;;;;2.41;100.00;101178.74;1699404;83;21153;-60
2023/01/01 02:51:51;;;;;;;9.85;7.40;;;;;;;2.42;100.00;101175.23;1700181;84;21120;-59
2023/01/01 02:54:30;;;;;;;11.75;8.05;;;;;;;2.41;100.00;101166.69;1699762;84;21001;-60
2023/01/01 02:57:11;;;;;;;10.50;8.38;;;;;;;2.41;100.00;101169.73;1700088;83;20922;-61
2023/01/01 03:02:46;;;;;;;10.63;8.30;;;;;;;2.42;100.00;101143.91;1700107;84;21833;-61
2023/01/01 03:05:24;;;;;;;10.13;7.78;;;;;;;2.45;100.00;101140.28;1699736;83;21018;-63
2023/01/01 03:08:17;;;;;;;12.55;8.08;;;;;;;2.47;100.00;101128.61;1691373;84;21022;-60
2023/01/01 03:10:58;;;;;;;11.22;7.42;;;;;;;2.50;100.00;101128.37;1699361;84;22049;-62
2023/01/01 03:13:34;;;;;;;9.80;7.58;;;;;;;2.52;100.00;101130.38;1695565;84;20993;-61
2023/01/01 03:16:09;;;;;;;10.93;7.75;;;;;;;2.55;100.00;101131.45;1700211;81;21185;-65
2023/01/01 03:19:09;;;;;;;11.03;8.15;;;;;;;2.58;100.00;101123.05;1699410;83;21002;-61
2023/01/01 03:21:25;;;;;;;11.03;8.05;;;;;;;2.62;100.00;101122.37;1700524;83;21002;-61
2023/01/01 03:23:53;;;;;;;9.95;7.25;;;;;;;2.66;100.00;101140.05;1699746;83;21489;-65
2023/01/01 03:26:21;;;;;;;9.98;7.47;;;;;;;2.70;100.00;101134.69;1700816;83;21235;-62
2023/01/01 03:28:52;;;;;;;10.25;7.35;;;;;;;2.71;100.00;101118.30;1700468;82;21259;-61
2023/01/01 03:31:24;;;;;;;10.90;7.17;;;;;;;2.73;100.00;101109.98;1700196;83;20927;-64
2023/01/01 03:34:02;;;;;;;10.32;7.28;;;;;;;2.74;100.00;101112.94;1699487;84;20943;-65
2023/01/01 03:36:38;;;;;;;10.50;7.33;;;;;;;2.75;100.00;101124.87;1700041;84;20943;-61
2023/01/01 03:39:13;;;;;;;9.98;6.75;;;;;;;2.76;100.00;101126.50;1700018;84;20927;-62
2023/01/01 03:41:54;;;;;;;11.65;8.10;;;;;;;2.76;100.00;101131.66;1699590;83;21505;-62
2023/01/01 03:44:34;;;;;;;10.63;7.35;;;;;;;2.75;100.00;101118.43;1699968;83;21528;-63
2023/01/01 03:47:01;;;;;;;9.78;7.35;;;;;;;2.77;100.00;101108.86;1699540;81;21512;-65
2023/01/01 03:49:29;;;;;;;9.83;7.05;;;;;;;2.77;100.00;101111.44;1700425;82;21105;-62
2023/01/01 03:52:23;;;;;;;11.60;7.45;;;;;;;2.78;100.00;101114.35;1700129;82;21877;-61
2023/01/01 03:55:10;;;;;;;8.70;6.42;;;;;;;2.78;100.00;101099.72;1699431;82;22048;-63
2023/01/01 03:58:06;;;;;;;9.83;6.92;;;;;;;2.81;100.00;101097.40;1700346;84;21029;-60
2023/01/01 04:00:37;;;;;;;9.98;6.58;;;;;;;2.82;100.00;101095.17;1700182;82;21454;-61
2023/01/01 04:03:15;;;;;;;11.60;7.42;;;;;;;2.82;100.00;101093.41;1700322;84;20907;-61
2023/01/01 04:05:42;;;;;;;9.68;6.47;;;;;;;2.85;100.00;101094.95;1700035;83;21077;-65
2023/01/01 04:08:10;;;;;;;10.18;7.20;;;;;;;2.86;100.00;101083.71;1700015;83;22107;-61
2023/01/01 04:10:48;;;;;;;9.18;6.78;;;;;;;2.87;100.00;101080.20;1700309;84;21410;-61
2023/01/01 04:13:15;;;;;;;11.88;7.55;;;;;;;2.88;100.00;101097.31;1700306;82;20911;-60
2023/01/01 04:15:43;;;;;;;9.38;6.58;;;;;;;2.92;100.00;101093.58;1699960;81;21036;-65
2023/01/01 04:18:10;;;;;;;8.68;6.50;;;;;;;3.00;100.00;101104.13;1700579;84;21359;-60
2023/01/01 04:20:38;;;;;;;8.83;6.47;;;;;;;3.03;100.00;101102.63;1700321;83;21322;-62
2023/01/01 04:23:05;;;;;;;10.78;7.58;;;;;;;3.05;100.00;101098.16;1700652;84;21523;-60
2023/01/01 04:25:33;;;;;;;9.85;7.35;;;;;;;3.08;100.00;101099.23;1700414;84;20946;-65
2023/01/01 04:28:02;;;;;;;8.78;7.22;;;;;;;3.10;100.00;101089.61;1699695;83;21507;-63
2023/01/01 04:30:29;;;;;;;9.10;6.40;;;;;;;3.12;100.00;101088.23;1700485;84;21053;-60
2023/01/01 04:32:56;;;;;;;10.65;7.03;;;;;;;3.12;100.00;101080.50;1700567;84;22178;-61
2023/01/01 04:35:24;;;;;;;11.35;7.70;;;;;;;3.13;100.00;101076.51;1700379;84;20990;-60
2023/01/01 04:37:51;;;;;;;9.15;6.78;;;;;;;3.13;100.00;101070.54;1699036;83;21444;-63
2023/01/01 04:40:19;;;;;;;9.28;6.45;;;;;;;3.11;100.00;101068.09;1700310;84;21478;-60
2023/01/01 04:42:47;;;;;;;9.78;6.85;;;;;;;3.11;100.00;101061.66;1699807;84;21124;-59
2023/01/01 04:45:16;;;;;;;10.45;6.75;;;;;;;3.13;100.00;101063.63;1704371;82;22213;-59
2023/01/01 04:47:44;;;;;;;9.88;6.80;;;;;;;3.12;100.00;101065.86;1728328;81;20951;-64
2023/01/01 04:50:11;;;;;;;9.90;6.28;;;;;;;3.13;100.00;101062.34;1727280;82;21109;-61
2023/01/01 04:52:39;;;;;;;8.18;6.10;;;;;;;3.15;100.00;101046.31;1688618;84;21074;-59
2023/01/01 04:55:08;;;;;;;10.20;6.45;;;;;;;3.17;100.00;101047.00;1688452;84;20899;-60
2023/01/01 04:57:35;;;;;;;8.53;5.80;;;;;;;3.18;100.00;101051.69;1688481;84;21213;-63
2023/01/01 05:00:04;;;;;;;8.50;6.62;;;;;;;3.20;100.00;101056.73;1687663;84;20955;-60
2023/01/01 05:02:32;;;;;;;9.75;6.45;;;;;;;3.21;100.00;101062.23;1687918;84;21014;-60
2023/01/01 05:04:59;;;;;;;9.53;5.95;;;;;;;3.24;100.00;101067.16;1688432;84;21516;-60
2023/01/01 05:07:36;;;;;;;8.40;6.20;;;;;;;3.25;100.00;101071.37;1688426;84;20994;-65
2023/01/01 05:10:04;;;;;;;10.10;6.58;;;;;;;3.28;100.00;101075.02;1688611;84;22065;-61
2023/01/01 05:12:32;;;;;;;10.08;6.15;;;;;;;3.31;100.00;101072.21;1688861;83;21467;-60
2023/01/01 05:15:00;;;;;;;8.30;6.00;;;;;;;3.33;100.00;101071.17;1688727;84;21025;-61
2023/01/01 05:17:27;;;;;;;8.33;6.22;;;;;;;3.34;100.00;101075.85;1688073;84;21078;-61
2023/01/01 05:19:54;;;;;;;8.60;6.53;;;;;;;3.36;100.00;101073.48;1687668;84;21077;-65
2023/01/01 05:22:22;;;;;;;9.45;6.80;;;;;;;3.39;100.00;101072.45;1687916;84;21817;-60
2023/01/01 05:24:49;;;;;;;8.48;6.10;;;;;;;3.40;100.00;101071.03;1688139;83;21492;-60
2023/01/01 05:27:16;;;;;;;8.60;6.20;;;;;;;3.43;100.00;101071.75;1688228;84;21430;-59
2023/01/01 05:29:44;;;;;;;9.15;6.10;;;;;;;3.44;100.00;101072.09;1687152;84;21042;-60
2023/01/01 05:32:11;;;;;;;8.23;5.92;;;;;;;3.47;100.00;101068.00;1687596;84;21053;-63
2023/01/01 05:34:39;;;;;;;8.15;5.90;;;;;;;3.47;100.00;101079.12;1689058;84;21174;-60
2023/01/01 05:37:07;;;;;;;8.68;6.15;;;;;;;3.48;100.00;101079.47;1688525;84;20954;-61
2023/01/01 05:39:35;;;;;;;8.95;6.42;;;;;;;3.49;100.00;101069.53;1687993;84;21031;-62
2023/01/01 05:42:03;;;;;;;7.72;6.22;;;;;;;3.52;100.00;101072.32;1687952;84;21765;-60
2023/01/01 05:44:31;;;;;;;8.78;6.30;;;;;;;3.54;100.00;101069.17;1688528;84;21125;-60
2023/01/01 05:46:59;;;;;;;7.72;5.33;;;;;;;3.56;100.00;101058.26;1684448;84;21348;-61
2023/01/01 05:49:27;;;;;;;8.73;6.20;;;;;;;3.58;100.00;101058.50;1682766;85;21074;-64
2023/01/01 05:51:54;;;;;;;7.37;5.37;;;;;;;3.58;100.00;101052.06;1682531;85;21090;-64
2023/01/01 05:54:21;;;;;;;8.48;5.85;;;;;;;3.60;100.00;101050.20;1683201;85;21460;-60
2023/01/01 05:56:49;;;;;;;8.63;6.22;;;;;;;3.61;100.00;101046.67;1683511;84;21528;-59
2023/01/01 05:59:17;;;;;;;8.33;6.03;;;;;;;3.64;100.00;101045.62;1683316;85;21168;-60
2023/01/01 06:01:44;;;;;;;8.93;6.45;;;;;;;3.68;100.00;101041.05;1683201;84;20957;-62
2023/01/01 06:04:11;;;;;;;9.70;6.70;;;;;;;3.69;100.00;101034.47;1683236;84;21349;-60
2023/01/01 06:06:39;;;;;;;9.68;6.53;;;;;;;3.72;100.00;101029.09;1656943;85;21015;-59
2023/01/01 06:09:09;;;;;;;9.00;6.28;;;;;;;3.75;100.00;101025.42;1683704;84;21523;-60
2023/01/01 06:11:36;;;;;;;8.50;6.35;;;;;;;3.78;100.00;101029.06;1683655;85;21777;-64
2023/01/01 06:14:03;;;;;;;8.10;6.08;;;;;;;3.82;100.00;101031.75;1682905;83;21023;-60
2023/01/01 06:16:32;;;;;;;8.80;6.28;;;;;;;3.83;100.00;101026.96;1683704;85;21057;-60
2023/01/01 06:18:59;;;;;;;9.60;6.42;;;;;;;3.88;100.00;101027.41;1683582;84;21010;-60
2023/01/01 06:21:27;;;;;;;8.28;5.60;;;;;;;3.91;100.00;101032.33;1683616;84;21023;-59
2023/01/01 06:23:57;;;;;;;8.40;5.78;;;;;;;3.96;100.00;101033.25;1682577;83;21896;-63
2023/01/01 06:26:27;;;;;;;8.80;6.20;;;;;;;4.00;100.00;101030.30;1683616;84;21498;-59
2023/01/01 06:28:55;;;;;;;9.03;6.35;;;;;;;4.04;100.00;101025.72;1655741;85;20907;-61
2023/01/01 06:31:22;;;;;;;9.13;6.10;;;;;;;4.08;100.00;101024.06;1683610;83;21023;-60
2023/01/01 06:33:49;;;;;;;8.60;5.92;;;;;;;4.11;100.00;101022.53;1683322;85;21148;-65
2023/01/01 06:36:18;;;;;;;9.20;6.25;;;;;;;4.15;100.00;101020.53;1682606;84;21146;-60
2023/01/01 06:38:49;;;;;;;8.23;6.10;;;;;;;4.19;100.00;101017.23;1683375;84;21305;-60
2023/01/01 06:41:21;;;;;;;7.90;6.60;;;;;;;4.24;100.00;101026.23;1683500;85;20979;-60
2023/01/01 06:43:48;;;;;;;9.13;6.47;;;;;;;4.33;100.00;101023.41;1682673;84;20966;-59
2023/01/01 06:46:23;;;;;;;9.38;5.87;;;;;;;4.38;100.00;101019.97;1676269;85;21099;-60
2023/01/01 06:48:53;;;;;;;9.87;6.57;;;;;;;4.44;100.00;101023.36;1659517;86;21095;-59
2023/01/01 06:51:23;;;;;;;10.90;6.80;;;;;;;4.47;100.00;101011.50;1700645;84;21357;-64
2023/01/01 06:53:50;;;;;;;10.10;6.57;;;;;;;4.52;100.00;101005.95;1699586;84;21274;-60
2023/01/01 06:56:18;;;;;;;10.80;7.35;;;;;;;4.57;100.00;101004.62;1700281;84;21541;-60
2023/01/01 06:58:45;;;;;;;10.75;7.67;;;;;;;4.61;100.00;101003.42;1700520;83;20927;-59
2023/01/01 07:01:15;;;;;;;13.25;7.58;;;;;;;4.67;100.00;101001.30;1700366;81;22744;-60
2023/01/01 07:03:42;;;;;;;11.47;7.87;;;;;;;4.74;100.00;101006.31;1699906;81;20963;-61
2023/01/01 07:06:09;;;;;;;9.60;7.13;;;;;;;4.77;100.00;100993.96;1700069;83;21171;-59
2023/01/01 07:08:37;;;;;;;11.90;8.17;;;;;;;4.82;100.00;100997.45;1700732;82;21059;-60
2023/01/01 07:11:04;;;;;;;10.53;7.63;;;;;;;4.86;100.00;100994.47;1700565;81;21365;-61
2023/01/01 07:13:32;;;;;;;10.08;7.25;;;;;;;4.91;100.00;100995.38;1700800;81;21160;-64
2023/01/01 07:16:01;;;;;;;11.70;7.67;;;;;;;4.95;100.00;100998.05;1700286;83;22356;-60
2023/01/01 07:18:29;;;;;;;9.30;7.03;;;;;;;4.99;100.00;100992.16;1700922;84;21142;-61
2023/01/01 07:20:58;;;;;;;10.43;7.57;;;;;;;5.03;100.00;101002.09;1700734;83;21839;-59
2023/01/01 07:23:26;;;;;;;9.50;7.07;;;;;;;5.05;100.00;100998.92;1700874;84;21249;-62
2023/01/01 07:25:53;;;;;;;11.20;7.63;;;;;;;5.08;100.00;100999.97;1699788;82;21585;-61
2023/01/01 07:28:22;;;;;;;13.77;8.73;;;;;;;5.13;100.00;100996.51;1700132;84;21660;-60
2023/01/01 07:30:52;;;;;;;11.20;8.20;;;;;;;5.20;100.00;100998.59;1700459;84;21743;-60
2023/01/01 07:33:22;;;;;;;12.40;8.53;;;;;;;5.25;100.00;100997.23;1700323;82;21821;-60
2023/01/01 07:35:49;;;;;;;11.47;8.53;;;;;;;5.30;100.00;101000.27;1699844;84;21290;-62
2023/01/01 07:38:16;;;;;;;10.80;8.87;;;;;;;5.36;100.00;101003.60;1699271;84;21335;-59
2023/01/01 07:40:45;;;;;;;10.97;8.77;;;;;;;5.42;100.00;100999.69;1700258;82;21554;-59
2023/01/01 07:43:14;;;;;;;11.57;7.87;;;;;;;5.46;100.00;100994.59;1700250;83;21210;-59
2023/01/01 07:45:42;;;;;;;13.53;8.37;;;;;;;5.49;100.00;101002.55;1699591;82;21388;-60
2023/01/01 07:48:13;;;;;;;10.70;8.07;;;;;;;5.54;100.00;101003.80;1725702;82;21804;-61
2023/01/01 07:50:41;;;;;;;11.53;8.57;;;;;;;5.60;100.00;101001.97;1728535;81;22121;-59
2023/01/01 07:53:09;;;;;;;10.97;8.03;;;;;;;5.66;100.00;101003.70;1728449;82;21276;-59
2023/01/01 07:55:36;;;;;;;11.40;7.90;;;;;;;5.71;100.00;101002.81;1687657;84;21685;-62
2023/01/01 07:58:06;;;;;;;10.70;8.07;;;;;;;5.75;100.00;101001.59;1688576;84;21315;-62
2023/01/01 08:00:33;;;;;;;10.57;7.73;;;;;;;5.79;100.00;101010.73;1687565;84;21664;-59
2023/01/01 08:03:01;;;;;;;11.73;8.13;;;;;;;5.81;100.00;101001.08;1688430;84;21425;-59
2023/01/01 08:05:28;;;;;;;10.73;7.80;;;;;;;5.81;100.00;100999.30;1688170;84;21136;-61
2023/01/01 08:07:55;;;;;;;10.93;7.40;;;;;;;5.84;100.00;100999.04;1687623;84;21298;-62
2023/01/01 08:10:22;;;;;;;11.50;8.17;;;;;;;5.83;100.00;100996.56;1688506;83;21299;-62
2023/01/01 08:12:51;;;;;;;11.50;8.40;;;;;;;5.81;100.00;100987.66;1687862;83;21088;-62
2023/01/01 08:15:19;;;;;;;12.00;8.33;;;;;;;5.81;100.00;100994.61;1688172;84;21271;-61
2023/01/01 08:17:46;;;;;;;11.10;8.17;;;;;;;5.81;100.00;100990.25;1688081;84;21022;-62
2023/01/01 08:20:13;;;;;;;9.97;7.53;;;;;;;5.82;100.00;101000.11;1687866;84;21738;-62
2023/01/01 08:22:41;;;;;;;10.93;8.20;;;;;;;5.83;100.00;100995.27;1687813;84;21192;-61
2023/01/01 08:25:09;;;;;;;10.57;7.77;;;;;;;5.85;100.00;101001.15;1688343;84;21319;-62
2023/01/01 08:27:37;;;;;;;10.97;8.53;;;;;;;5.85;100.00;100998.56;1687046;84;21212;-62
2023/01/01 08:30:05;;;;;;;11.20;8.23;;;;;;;5.85;100.00;100994.68;1688475;84;21138;-62
2023/01/01 08:32:33;;;;;;;10.73;8.47;;;;;;;5.82;100.00;100997.53;1688100;84;21163;-61
2023/01/01 08:35:00;;;;;;;11.70;8.80;;;;;;;5.81;100.00;100985.55;1688404;84;21717;-61
2023/01/01 08:37:27;;;;;;;10.77;8.73;;;;;;;5.79;100.00;100987.44;1688130;83;21293;-62
2023/01/01 08:39:55;;;;;;;11.13;9.10;;;;;;;5.78;100.00;100985.34;1687998;84;21255;-62
2023/01/01 08:42:22;;;;;;;11.90;8.87;;;;;;;5.79;100.00;100990.03;1687410;84;21208;-64
2023/01/01 08:44:52;;;;;;;10.10;8.20;;;;;;;5.82;100.00;100982.82;1688454;83;21236;-61
2023/01/01 08:47:22;;;;;;;10.27;8.30;;;;;;;5.82;100.00;100980.71;1675782;84;21288;-65
2023/01/01 08:49:51;;;;;;;12.53;10.25;;;;;;;5.83;100.00;100983.19;1659037;86;21146;-62
2023/01/01 08:52:18;;;;;;;12.00;8.83;;;;;;;5.85;100.00;100976.56;1699758;83;21268;-62
2023/01/01 08:54:45;;;;;;;11.03;9.03;;;;;;;5.85;100.00;100976.09;1699970;83;21355;-61
2023/01/01 08:57:14;;;;;;;10.97;8.37;;;;;;;5.88;100.00;100978.89;1699904;83;21798;-65
2023/01/01 08:59:43;;;;;;;11.30;8.93;;;;;;;5.90;100.00;100980.04;1699783;84;21565;-60
2023/01/01 09:02:11;;;;;;;11.70;8.33;;;;;;;5.95;100.00;100980.02;1699356;84;21178;-61
2023/01/01 09:04:40;;;;;;;11.67;8.80;;;;;;;5.98;100.00;100974.55;1699395;83;21980;-60
2023/01/01 09:07:07;;;;;;;11.57;9.10;;;;;;;6.02;100.00;100979.83;1700360;82;21276;-65
2023/01/01 09:09:34;;;;;;;12.40;8.90;;;;;;;6.03;100.00;100969.80;1699211;83;21326;-61
2023/01/01 09:12:04;;;;;;;11.40;8.73;;;;;;;6.07;100.00;100962.59;1699420;84;21832;-64
2023/01/01 09:14:33;;;;;;;11.80;8.63;;;;;;;6.08;100.00;100967.62;1699981;83;22022;-60
2023/01/01 09:17:00;;;;;;;10.47;7.67;;;;;;;6.11;100.00;100967.02;1699989;82;21242;-61
2023/01/01 09:19:27;;;;;;;12.27;9.33;;;;;;;6.15;100.00;100956.73;1700172;82;21798;-60
2023/01/01 09:21:56;;;;;;;10.97;8.70;;;;;;;6.20;100.00;100944.18;1699977;81;21105;-64
2023/01/01 09:24:23;;;;;;;12.33;9.13;;;;;;;6.25;100.00;100940.24;1700176;84;21500;-60
2023/01/01 09:26:50;;;;;;;10.07;7.73;;;;;;;6.31;100.00;100933.68;1700297;83;21246;-60
2023/01/01 09:29:19;;;;;;;11.70;8.90;;;;;;;6.35;100.00;100935.03;1699828;83;21839;-59
2023/01/01 09:31:50;;;;;;;12.50;8.70;;;;;;;6.40;100.00;100929.43;1699962;83;21694;-62
2023/01/01 09:34:17;;;;;;;11.35;8.35;;;;;;;6.44;100.00;100927.75;1700303;83;22164;-61
2023/01/01 09:36:45;;;;;;;10.87;7.80;;;;;;;6.48;100.00;100917.44;1700112;83;21043;-63
2023/01/01 09:39:14;;;;;;;10.07;7.77;;;;;;;6.56;100.00;100922.73;1699842;83;21766;-60
2023/01/01 09:42:05;;;;;;;10.20;8.13;;;;;;;6.60;100.00;100908.21;1700176;82;21264;-60
2023/01/01 09:45:01;;;;;;;10.82;8.50;;;;;;;6.65;100.00;100917.18;1700398;83;21837;-61
2023/01/01 09:47:39;;;;;;;12.50;9.00;;;;;;;6.70;100.00;100918.86;1709304;82;21538;-61
2023/01/01 09:50:11;;;;;;;11.77;8.23;;;;;;;6.74;100.00;100908.58;1728406;82;21145;-62
2023/01/01 09:52:53;;;;;;;11.37;8.27;;;;;;;6.79;100.00;100914.62;1727960;82;21229;-61
2023/01/01 09:55:29;;;;;;;10.78;8.35;;;;;;;6.80;100.00;100909.28;1727971;82;21747;-60
2023/01/01 09:57:57;;;;;;;10.70;8.13;;;;;;;6.84;100.00;100900.75;1685820;84;21490;-62
2023/01/01 10:00:24;;;;;;;10.87;8.67;;;;;;;6.87;100.00;100896.58;1688245;84;21769;-61
2023/01/01 10:03:20;;;;;;;10.33;8.30;;;;;;;6.94;100.00;100900.23;1687964;84;21265;-64
2023/01/01 10:05:52;;;;;;;11.57;8.50;;;;;;;6.94;100.00;100900.23;1659449;84;21360;-60
2023/01/01 10:08:42;;;;;;;12.23;8.60;;;;;;;6.97;100.00;100897.36;1688308;84;21576;-60
2023/01/01 10:12:04;;;;;;;11.70;8.20;;;;;;;7.00;100.00;100902.23;1688145;84;21407;-63
2023/01/01 10:14:39;;;;;;;11.70;9.10;;;;;;;7.02;100.00;100901.63;1687491;84;21371;-61
2023/01/01 10:17:22;;;;;;;10.47;8.20;;;;;;;7.06;100.00;100903.45;1688230;83;21216;-60
2023/01/01 10:19:51;;;;;;;;;;;;;;;7.09;100.00;100912.72;1689967;84;21377;-61
2023/01/01 10:22:26;;;;;;;11.83;8.80;;;;;;;7.12;100.00;100911.11;1687308;84;21831;-61
2023/01/01 10:25:03;;;;;;;11.00;9.00;;;;;;;7.13;100.00;100912.28;1687831;83;21853;-59
2023/01/01 10:27:46;;;;;;;10.67;8.10;;;;;;;7.15;100.00;100914.23;1687977;84;21312;-60
2023/01/01 10:30:20;;;;;;;9.53;7.87;;;;;;;7.15;100.00;100903.87;1688322;84;21666;-60
2023/01/01 10:32:50;;;;;;;12.03;8.93;;;;;;;7.16;100.00;100896.45;1688806;83;21925;-60
2023/01/01 10:35:21;;;;;;;11.20;7.97;;;;;;;7.20;100.00;100888.71;1688047;84;21522;-61
2023/01/01 10:37:51;;;;;;;12.05;8.85;;;;;;;7.19;100.00;100890.13;1687676;84;21479;-62
2023/01/01 10:40:22;;;;;;;12.03;9.37;;;;;;;7.19;100.00;100882.36;1688429;84;21775;-60
2023/01/01 10:42:52;;;;;;;11.83;9.00;;;;;;;7.21;100.00;100886.45;1688273;84;21328;-64
2023/01/01 10:45:38;;;;;;;11.40;9.00;;;;;;;7.21;100.00;100881.75;1688566;84;21833;-60
2023/01/01 10:48:20;;;;;;;10.37;8.10;;;;;;;7.25;100.00;100879.19;1675425;84;21171;-61
2023/01/01 10:50:58;;;;;;;11.28;9.15;;;;;;;7.33;100.00;100872.79;1659342;84;22635;-61
2023/01/01 10:53:41;;;;;;;13.40;9.60;;;;;;;7.49;100.00;100870.34;1699964;84;22358;-60
2023/01/01 10:56:12;;;;;;;12.20;9.13;;;;;;;7.49;100.00;100870.34;1698912;84;21525;-61
2023/01/01 10:58:56;;;;;;;12.73;9.30;;;;;;;7.53;100.00;100867.79;1700062;83;21842;-64
2023/01/01 11:01:26;;;;;;;11.93;9.00;;;;;;;7.58;100.00;100867.83;1700091;84;21253;-60
2023/01/01 11:04:19;;;;;;;11.57;8.87;;;;;;;7.58;100.00;100867.83;1700383;82;21450;-64
2023/01/01 11:06:46;;;;;;;12.83;8.87;;;;;;;7.54;100.00;100855.17;1699852;84;21929;-61
2023/01/01 11:09:26;;;;;;;12.60;9.83;;;;;;;7.54;100.00;100855.17;1699886;83;21412;-62
2023/01/01 11:12:04;;;;;;;12.77;8.53;;;;;;;7.45;100.00;100844.38;1699330;84;21391;-63
2023/01/01 11:14:49;;;;;;;11.37;8.30;;;;;;;7.45;100.00;100844.38;1699872;82;21492;-62
2023/01/01 11:17:25;;;;;;;13.47;9.73;;;;;;;7.50;100.00;100833.55;1700229;83;21257;-65
2023/01/01 11:19:53;;;;;;;11.20;8.57;;;;;;;7.60;100.00;100826.99;1699882;83;21570;-61
2023/01/01 11:22:40;;;;;;;12.93;9.00;;;;;;;7.60;100.00;100826.99;1700069;83;21707;-60
2023/01/01 11:25:24;;;;;;;13.23;9.60;;;;;;;7.65;100.00;100824.75;1700230;83;21442;-63
2023/01/01 11:27:51;;;;;;;10.63;8.63;;;;;;;7.78;100.00;100818.71;1700531;83;22299;-60
2023/01/01 11:30:27;;;;;;;11.43;8.70;;;;;;;7.93;100.00;100806.00;1700662;84;21465;-60
2023/01/01 11:32:58;;;;;;;12.33;8.90;;;;;;;7.97;100.00;100802.95;1700781;83;21433;-64
2023/01/01 11:35:28;;;;;;;13.03;8.70;;;;;;;7.97;100.00;100802.95;1700471;81;22484;-60
2023/01/01 11:37:55;;;;;;;12.37;8.67;;;;;;;7.98;100.00;100805.05;1700434;83;21422;-61
2023/01/01 11:40:34;;;;;;;11.97;9.37;;;;;;;8.01;100.00;100810.75;1700929;82;22228;-60
2023/01/01 11:43:03;;;;;;;11.97;9.10;;;;;;;8.01;100.00;100803.45;1699996;84;21415;-60
2023/01/01 11:45:34;;;;;;;12.07;8.53;;;;;;;8.02;100.00;100803.29;1700965;83;22516;-60